sensor_id;sensor_type;location;lat;lon;timestamp;P1;durP1;ratioP1;P2;durP2;ratioP2
13683;SDS011;6914;53.552;9.908;2022-11-15T00:02:00;53.20;;;31.33;;
13683;SDS011;6914;53.552;9.908;2022-11-15T00:04:29;67.47;;;36.03;;
13683;SDS011;6914;53.552;9.908;2022-11-15T00:06:55;68.27;;;35.50;;
13683;SDS011;6914;53.552;9.908;2022-11-15T00:09:22;60.07;;;34.83;;
13683;SDS011;6914;53.552;9.908;2022-11-15T00:11:50;68.97;;;35.53;;
13683;SDS011;6914;53.552;9.908;2022-11-15T00:14:17;74.97;;;36.30;;
13683;SDS011;6914;53.552;9.908;2022-11-15T00:16:46;59.57;;;34.90;;
13683;SDS011;6914;53.552;9.908;2022-11-15T00:19:12;59.00;;;34.70;;
13683;SDS011;6914;53.552;9.908;2022-11-15T00:21:39;65.20;;;35.43;;
13683;SDS011;6914;53.552;9.908;2022-11-15T00:24:06;57.80;;;34.27;;
13683;SDS011;6914;53.552;9.908;2022-11-15T00:26:33;63.80;;;37.13;;
13683;SDS011;6914;53.552;9.908;2022-11-15T00:28:59;72.60;;;36.83;;
13683;SDS011;6914;53.552;9.908;2022-11-15T00:31:26;62.77;;;34.30;;
13683;SDS011;6914;53.552;9.908;2022-11-15T00:33:54;67.70;;;35.50;;
13683;SDS011;6914;53.552;9.908;2022-11-15T00:36:21;57.73;;;33.27;;
13683;SDS011;6914;53.552;9.908;2022-11-15T00:38:47;59.80;;;31.80;;
13683;SDS011;6914;53.552;9.908;2022-11-15T00:41:14;54.53;;;33.37;;
13683;SDS011;6914;53.552;9.908;2022-11-15T00:43:41;72.33;;;36.53;;
13683;SDS011;6914;53.552;9.908;2022-11-15T00:46:08;64.33;;;35.87;;
13683;SDS011;6914;53.552;9.908;2022-11-15T00:48:35;67.07;;;36.27;;
13683;SDS011;6914;53.552;9.908;2022-11-15T00:51:03;58.93;;;33.73;;
13683;SDS011;6914;53.552;9.908;2022-11-15T00:53:30;61.97;;;35.63;;
13683;SDS011;6914;53.552;9.908;2022-11-15T00:55:57;66.90;;;35.00;;
13683;SDS011;6914;53.552;9.908;2022-11-15T00:58:23;57.03;;;33.97;;
13683;SDS011;6914;53.552;9.908;2022-11-15T01:00:50;61.23;;;35.40;;
13683;SDS011;6914;53.552;9.908;2022-11-15T01:03:17;58.03;;;30.87;;
13683;SDS011;6914;53.552;9.908;2022-11-15T01:05:43;65.60;;;34.67;;
13683;SDS011;6914;53.552;9.908;2022-11-15T01:08:13;51.33;;;32.00;;
13683;SDS011;6914;53.552;9.908;2022-11-15T01:10:43;66.80;;;35.87;;
13683;SDS011;6914;53.552;9.908;2022-11-15T01:13:10;66.33;;;33.57;;
13683;SDS011;6914;53.552;9.908;2022-11-15T01:15:38;63.33;;;32.80;;
13683;SDS011;6914;53.552;9.908;2022-11-15T01:18:05;64.77;;;33.43;;
13683;SDS011;6914;53.552;9.908;2022-11-15T01:20:32;50.60;;;30.20;;
13683;SDS011;6914;53.552;9.908;2022-11-15T01:22:59;56.53;;;31.90;;
13683;SDS011;6914;53.552;9.908;2022-11-15T01:25:27;57.73;;;33.13;;
13683;SDS011;6914;53.552;9.908;2022-11-15T01:27:54;58.70;;;31.20;;
13683;SDS011;6914;53.552;9.908;2022-11-15T01:30:20;60.43;;;31.17;;
13683;SDS011;6914;53.552;9.908;2022-11-15T01:32:47;55.57;;;31.10;;
13683;SDS011;6914;53.552;9.908;2022-11-15T01:35:14;61.27;;;34.10;;
13683;SDS011;6914;53.552;9.908;2022-11-15T01:37:41;65.13;;;32.70;;
13683;SDS011;6914;53.552;9.908;2022-11-15T01:40:08;59.80;;;31.50;;
13683;SDS011;6914;53.552;9.908;2022-11-15T01:42:36;52.20;;;29.97;;
13683;SDS011;6914;53.552;9.908;2022-11-15T01:45:03;55.80;;;30.60;;
13683;SDS011;6914;53.552;9.908;2022-11-15T01:47:32;58.23;;;33.17;;
13683;SDS011;6914;53.552;9.908;2022-11-15T01:50:02;56.53;;;30.93;;
13683;SDS011;6914;53.552;9.908;2022-11-15T01:52:31;59.17;;;31.00;;
13683;SDS011;6914;53.552;9.908;2022-11-15T01:55:00;51.20;;;30.20;;
13683;SDS011;6914;53.552;9.908;2022-11-15T01:57:31;53.63;;;30.67;;
13683;SDS011;6914;53.552;9.908;2022-11-15T01:59:59;61.90;;;35.07;;
13683;SDS011;6914;53.552;9.908;2022-11-15T02:02:29;57.70;;;32.60;;
13683;SDS011;6914;53.552;9.908;2022-11-15T02:04:56;58.23;;;32.07;;
13683;SDS011;6914;53.552;9.908;2022-11-15T02:07:22;59.47;;;31.80;;
13683;SDS011;6914;53.552;9.908;2022-11-15T02:09:49;73.10;;;34.07;;
13683;SDS011;6914;53.552;9.908;2022-11-15T02:12:18;60.83;;;33.50;;
13683;SDS011;6914;53.552;9.908;2022-11-15T02:14:47;59.50;;;32.63;;
13683;SDS011;6914;53.552;9.908;2022-11-15T02:17:35;64.80;;;32.90;;
13683;SDS011;6914;53.552;9.908;2022-11-15T02:23:12;53.03;;;29.57;;
13683;SDS011;6914;53.552;9.908;2022-11-15T02:25:57;60.83;;;32.60;;
13683;SDS011;6914;53.552;9.908;2022-11-15T02:28:45;66.30;;;34.17;;
13683;SDS011;6914;53.552;9.908;2022-11-15T02:31:25;65.73;;;32.80;;
13683;SDS011;6914;53.552;9.908;2022-11-15T02:33:59;58.50;;;33.63;;
13683;SDS011;6914;53.552;9.908;2022-11-15T02:36:34;62.53;;;33.13;;
13683;SDS011;6914;53.552;9.908;2022-11-15T02:39:07;60.87;;;34.27;;
13683;SDS011;6914;53.552;9.908;2022-11-15T02:41:42;75.30;;;34.03;;
13683;SDS011;6914;53.552;9.908;2022-11-15T02:44:13;66.57;;;32.90;;
13683;SDS011;6914;53.552;9.908;2022-11-15T02:46:45;63.53;;;35.10;;
13683;SDS011;6914;53.552;9.908;2022-11-15T02:49:33;61.03;;;33.60;;
13683;SDS011;6914;53.552;9.908;2022-11-15T02:52:00;69.10;;;36.20;;
13683;SDS011;6914;53.552;9.908;2022-11-15T02:54:29;69.70;;;35.60;;
13683;SDS011;6914;53.552;9.908;2022-11-15T02:56:59;65.33;;;35.13;;
13683;SDS011;6914;53.552;9.908;2022-11-15T02:59:35;59.30;;;32.70;;
13683;SDS011;6914;53.552;9.908;2022-11-15T03:02:27;58.80;;;32.87;;
13683;SDS011;6914;53.552;9.908;2022-11-15T03:05:09;57.30;;;31.23;;
13683;SDS011;6914;53.552;9.908;2022-11-15T03:07:44;66.17;;;34.10;;
13683;SDS011;6914;53.552;9.908;2022-11-15T03:10:18;54.93;;;34.20;;
13683;SDS011;6914;53.552;9.908;2022-11-15T03:12:50;61.37;;;31.30;;
13683;SDS011;6914;53.552;9.908;2022-11-15T03:15:21;58.57;;;32.40;;
13683;SDS011;6914;53.552;9.908;2022-11-15T03:17:54;78.13;;;35.30;;
13683;SDS011;6914;53.552;9.908;2022-11-15T03:20:24;60.60;;;32.20;;
13683;SDS011;6914;53.552;9.908;2022-11-15T03:22:53;55.40;;;31.47;;
13683;SDS011;6914;53.552;9.908;2022-11-15T03:25:24;64.47;;;33.67;;
13683;SDS011;6914;53.552;9.908;2022-11-15T03:27:52;64.97;;;33.80;;
13683;SDS011;6914;53.552;9.908;2022-11-15T03:30:21;63.07;;;32.90;;
13683;SDS011;6914;53.552;9.908;2022-11-15T03:32:49;67.03;;;34.27;;
13683;SDS011;6914;53.552;9.908;2022-11-15T03:35:22;67.60;;;34.00;;
13683;SDS011;6914;53.552;9.908;2022-11-15T03:37:53;67.03;;;33.87;;
13683;SDS011;6914;53.552;9.908;2022-11-15T03:40:24;68.40;;;34.40;;
13683;SDS011;6914;53.552;9.908;2022-11-15T03:42:58;69.47;;;34.10;;
13683;SDS011;6914;53.552;9.908;2022-11-15T03:45:29;66.90;;;34.40;;
13683;SDS011;6914;53.552;9.908;2022-11-15T03:47:59;59.30;;;33.37;;
13683;SDS011;6914;53.552;9.908;2022-11-15T03:50:32;65.70;;;31.87;;
13683;SDS011;6914;53.552;9.908;2022-11-15T03:53:00;60.53;;;32.47;;
13683;SDS011;6914;53.552;9.908;2022-11-15T03:55:27;57.43;;;30.37;;
13683;SDS011;6914;53.552;9.908;2022-11-15T03:57:55;57.03;;;32.13;;
13683;SDS011;6914;53.552;9.908;2022-11-15T04:00:24;68.47;;;34.33;;
13683;SDS011;6914;53.552;9.908;2022-11-15T04:02:51;73.63;;;31.30;;
13683;SDS011;6914;53.552;9.908;2022-11-15T04:05:18;61.17;;;31.53;;
13683;SDS011;6914;53.552;9.908;2022-11-15T04:07:46;57.93;;;31.93;;
13683;SDS011;6914;53.552;9.908;2022-11-15T04:10:13;56.70;;;29.17;;
13683;SDS011;6914;53.552;9.908;2022-11-15T04:12:40;62.63;;;31.60;;
13683;SDS011;6914;53.552;9.908;2022-11-15T04:15:09;58.20;;;31.20;;
13683;SDS011;6914;53.552;9.908;2022-11-15T04:17:38;57.07;;;32.20;;
13683;SDS011;6914;53.552;9.908;2022-11-15T04:20:07;56.10;;;32.00;;
13683;SDS011;6914;53.552;9.908;2022-11-15T04:22:56;57.57;;;30.30;;
13683;SDS011;6914;53.552;9.908;2022-11-15T04:25:41;55.63;;;29.03;;
13683;SDS011;6914;53.552;9.908;2022-11-15T04:28:08;55.60;;;30.33;;
13683;SDS011;6914;53.552;9.908;2022-11-15T04:30:35;52.33;;;29.83;;
13683;SDS011;6914;53.552;9.908;2022-11-15T04:33:02;54.07;;;29.87;;
13683;SDS011;6914;53.552;9.908;2022-11-15T04:35:29;57.47;;;30.27;;
13683;SDS011;6914;53.552;9.908;2022-11-15T04:37:58;50.30;;;29.67;;
13683;SDS011;6914;53.552;9.908;2022-11-15T04:40:24;46.97;;;29.53;;
13683;SDS011;6914;53.552;9.908;2022-11-15T04:42:50;52.00;;;28.23;;
13683;SDS011;6914;53.552;9.908;2022-11-15T04:45:17;52.80;;;26.90;;
13683;SDS011;6914;53.552;9.908;2022-11-15T04:47:44;53.83;;;29.10;;
13683;SDS011;6914;53.552;9.908;2022-11-15T04:50:11;52.07;;;28.20;;
13683;SDS011;6914;53.552;9.908;2022-11-15T04:52:39;49.73;;;27.00;;
13683;SDS011;6914;53.552;9.908;2022-11-15T04:55:08;53.83;;;29.10;;
13683;SDS011;6914;53.552;9.908;2022-11-15T04:57:35;44.80;;;27.70;;
13683;SDS011;6914;53.552;9.908;2022-11-15T05:00:02;43.57;;;27.20;;
13683;SDS011;6914;53.552;9.908;2022-11-15T05:02:30;51.40;;;28.80;;
13683;SDS011;6914;53.552;9.908;2022-11-15T05:05:11;45.27;;;26.87;;
13683;SDS011;6914;53.552;9.908;2022-11-15T05:07:38;43.00;;;26.20;;
13683;SDS011;6914;53.552;9.908;2022-11-15T05:10:05;43.90;;;27.00;;
13683;SDS011;6914;53.552;9.908;2022-11-15T05:12:33;44.77;;;25.47;;
13683;SDS011;6914;53.552;9.908;2022-11-15T05:15:00;43.57;;;26.87;;
13683;SDS011;6914;53.552;9.908;2022-11-15T05:17:26;41.93;;;25.03;;
13683;SDS011;6914;53.552;9.908;2022-11-15T05:19:53;40.10;;;24.23;;
13683;SDS011;6914;53.552;9.908;2022-11-15T05:22:20;42.23;;;24.37;;
13683;SDS011;6914;53.552;9.908;2022-11-15T05:24:47;42.73;;;24.53;;
13683;SDS011;6914;53.552;9.908;2022-11-15T05:27:14;37.03;;;24.87;;
13683;SDS011;6914;53.552;9.908;2022-11-15T05:29:42;39.73;;;24.43;;
13683;SDS011;6914;53.552;9.908;2022-11-15T05:32:09;46.67;;;23.77;;
13683;SDS011;6914;53.552;9.908;2022-11-15T05:34:38;40.83;;;24.10;;
13683;SDS011;6914;53.552;9.908;2022-11-15T05:37:05;38.97;;;23.90;;
13683;SDS011;6914;53.552;9.908;2022-11-15T05:39:31;40.53;;;26.23;;
13683;SDS011;6914;53.552;9.908;2022-11-15T05:41:59;40.90;;;25.73;;
13683;SDS011;6914;53.552;9.908;2022-11-15T05:47:59;48.70;;;24.40;;
13683;SDS011;6914;53.552;9.908;2022-11-15T05:50:30;45.00;;;22.53;;
13683;SDS011;6914;53.552;9.908;2022-11-15T05:52:57;34.77;;;22.97;;
13683;SDS011;6914;53.552;9.908;2022-11-15T05:55:24;54.17;;;25.57;;
13683;SDS011;6914;53.552;9.908;2022-11-15T05:57:51;36.63;;;24.37;;
13683;SDS011;6914;53.552;9.908;2022-11-15T06:00:18;38.27;;;22.83;;
13683;SDS011;6914;53.552;9.908;2022-11-15T06:02:45;38.10;;;25.17;;
13683;SDS011;6914;53.552;9.908;2022-11-15T06:05:13;35.23;;;23.17;;
13683;SDS011;6914;53.552;9.908;2022-11-15T06:07:39;35.40;;;22.40;;
13683;SDS011;6914;53.552;9.908;2022-11-15T06:10:07;38.23;;;22.90;;
13683;SDS011;6914;53.552;9.908;2022-11-15T06:12:34;32.97;;;21.73;;
13683;SDS011;6914;53.552;9.908;2022-11-15T06:15:01;36.40;;;24.67;;
13683;SDS011;6914;53.552;9.908;2022-11-15T06:17:28;36.70;;;22.33;;
13683;SDS011;6914;53.552;9.908;2022-11-15T06:19:55;29.37;;;20.53;;
13683;SDS011;6914;53.552;9.908;2022-11-15T06:22:23;33.73;;;22.60;;
13683;SDS011;6914;53.552;9.908;2022-11-15T06:24:49;37.37;;;24.13;;
13683;SDS011;6914;53.552;9.908;2022-11-15T06:27:16;29.43;;;21.00;;
13683;SDS011;6914;53.552;9.908;2022-11-15T06:29:43;36.60;;;21.70;;
13683;SDS011;6914;53.552;9.908;2022-11-15T06:32:10;39.43;;;23.67;;
13683;SDS011;6914;53.552;9.908;2022-11-15T06:34:36;44.87;;;24.17;;
13683;SDS011;6914;53.552;9.908;2022-11-15T06:37:03;40.77;;;23.90;;
13683;SDS011;6914;53.552;9.908;2022-11-15T06:39:31;35.53;;;22.70;;
13683;SDS011;6914;53.552;9.908;2022-11-15T06:41:58;35.83;;;22.10;;
13683;SDS011;6914;53.552;9.908;2022-11-15T06:44:25;39.20;;;23.47;;
13683;SDS011;6914;53.552;9.908;2022-11-15T06:46:51;37.63;;;22.00;;
13683;SDS011;6914;53.552;9.908;2022-11-15T06:49:18;34.43;;;22.33;;
13683;SDS011;6914;53.552;9.908;2022-11-15T06:51:45;35.70;;;22.20;;
13683;SDS011;6914;53.552;9.908;2022-11-15T06:54:12;36.17;;;22.27;;
13683;SDS011;6914;53.552;9.908;2022-11-15T06:56:39;32.77;;;21.10;;
13683;SDS011;6914;53.552;9.908;2022-11-15T06:59:06;42.70;;;23.67;;
13683;SDS011;6914;53.552;9.908;2022-11-15T07:01:33;35.90;;;23.20;;
13683;SDS011;6914;53.552;9.908;2022-11-15T07:04:00;38.50;;;24.63;;
13683;SDS011;6914;53.552;9.908;2022-11-15T07:06:27;39.20;;;23.83;;
13683;SDS011;6914;53.552;9.908;2022-11-15T07:08:54;41.03;;;23.23;;
13683;SDS011;6914;53.552;9.908;2022-11-15T07:11:20;33.47;;;21.90;;
13683;SDS011;6914;53.552;9.908;2022-11-15T07:13:49;41.27;;;23.90;;
13683;SDS011;6914;53.552;9.908;2022-11-15T07:16:15;37.37;;;22.90;;
13683;SDS011;6914;53.552;9.908;2022-11-15T07:18:42;34.47;;;22.70;;
13683;SDS011;6914;53.552;9.908;2022-11-15T07:21:09;36.90;;;24.33;;
13683;SDS011;6914;53.552;9.908;2022-11-15T07:23:37;37.73;;;22.73;;
13683;SDS011;6914;53.552;9.908;2022-11-15T07:26:05;33.67;;;22.53;;
13683;SDS011;6914;53.552;9.908;2022-11-15T07:28:32;45.43;;;24.67;;
13683;SDS011;6914;53.552;9.908;2022-11-15T07:31:02;35.93;;;22.57;;
13683;SDS011;6914;53.552;9.908;2022-11-15T07:33:30;35.97;;;25.00;;
13683;SDS011;6914;53.552;9.908;2022-11-15T07:35:58;48.03;;;22.87;;
13683;SDS011;6914;53.552;9.908;2022-11-15T07:38:26;36.07;;;23.23;;
13683;SDS011;6914;53.552;9.908;2022-11-15T07:40:55;44.17;;;23.53;;
13683;SDS011;6914;53.552;9.908;2022-11-15T07:43:23;36.20;;;21.67;;
13683;SDS011;6914;53.552;9.908;2022-11-15T07:45:50;46.43;;;24.20;;
13683;SDS011;6914;53.552;9.908;2022-11-15T07:48:18;40.50;;;24.57;;
13683;SDS011;6914;53.552;9.908;2022-11-15T07:50:44;41.10;;;23.83;;
13683;SDS011;6914;53.552;9.908;2022-11-15T07:53:11;36.00;;;23.67;;
13683;SDS011;6914;53.552;9.908;2022-11-15T07:55:39;47.47;;;23.17;;
13683;SDS011;6914;53.552;9.908;2022-11-15T07:58:07;34.97;;;24.07;;
13683;SDS011;6914;53.552;9.908;2022-11-15T08:00:36;41.07;;;22.47;;
13683;SDS011;6914;53.552;9.908;2022-11-15T08:03:04;39.63;;;21.97;;
13683;SDS011;6914;53.552;9.908;2022-11-15T08:05:33;41.73;;;24.20;;
13683;SDS011;6914;53.552;9.908;2022-11-15T08:08:01;33.70;;;22.13;;
13683;SDS011;6914;53.552;9.908;2022-11-15T08:10:28;37.87;;;21.93;;
13683;SDS011;6914;53.552;9.908;2022-11-15T08:12:59;34.70;;;22.50;;
13683;SDS011;6914;53.552;9.908;2022-11-15T08:15:26;31.93;;;23.10;;
13683;SDS011;6914;53.552;9.908;2022-11-15T08:17:54;33.80;;;19.77;;
13683;SDS011;6914;53.552;9.908;2022-11-15T08:20:21;32.87;;;21.20;;
13683;SDS011;6914;53.552;9.908;2022-11-15T08:22:49;33.67;;;20.60;;
13683;SDS011;6914;53.552;9.908;2022-11-15T08:25:16;31.97;;;22.13;;
13683;SDS011;6914;53.552;9.908;2022-11-15T08:27:43;34.60;;;20.60;;
13683;SDS011;6914;53.552;9.908;2022-11-15T08:30:11;35.93;;;22.00;;
13683;SDS011;6914;53.552;9.908;2022-11-15T08:32:38;34.87;;;20.00;;
13683;SDS011;6914;53.552;9.908;2022-11-15T08:35:05;34.77;;;21.63;;
13683;SDS011;6914;53.552;9.908;2022-11-15T08:37:33;36.87;;;22.17;;
13683;SDS011;6914;53.552;9.908;2022-11-15T08:40:01;34.00;;;22.37;;
13683;SDS011;6914;53.552;9.908;2022-11-15T08:42:28;36.00;;;21.00;;
13683;SDS011;6914;53.552;9.908;2022-11-15T08:44:55;36.50;;;21.30;;
13683;SDS011;6914;53.552;9.908;2022-11-15T08:47:22;39.40;;;21.87;;
13683;SDS011;6914;53.552;9.908;2022-11-15T08:49:49;33.30;;;20.80;;
13683;SDS011;6914;53.552;9.908;2022-11-15T08:52:15;31.47;;;23.40;;
13683;SDS011;6914;53.552;9.908;2022-11-15T08:54:42;32.90;;;21.40;;
13683;SDS011;6914;53.552;9.908;2022-11-15T08:57:10;37.37;;;20.00;;
13683;SDS011;6914;53.552;9.908;2022-11-15T08:59:37;35.67;;;21.13;;
13683;SDS011;6914;53.552;9.908;2022-11-15T09:02:04;26.97;;;19.40;;
13683;SDS011;6914;53.552;9.908;2022-11-15T09:04:31;32.23;;;21.00;;
13683;SDS011;6914;53.552;9.908;2022-11-15T09:06:58;37.53;;;21.60;;
13683;SDS011;6914;53.552;9.908;2022-11-15T09:09:25;32.40;;;20.47;;
13683;SDS011;6914;53.552;9.908;2022-11-15T09:11:52;31.60;;;21.47;;
13683;SDS011;6914;53.552;9.908;2022-11-15T09:14:20;36.00;;;21.60;;
13683;SDS011;6914;53.552;9.908;2022-11-15T09:16:47;31.00;;;22.10;;
13683;SDS011;6914;53.552;9.908;2022-11-15T09:19:13;36.47;;;20.27;;
13683;SDS011;6914;53.552;9.908;2022-11-15T09:21:40;31.20;;;20.67;;
13683;SDS011;6914;53.552;9.908;2022-11-15T09:24:07;30.03;;;20.90;;
13683;SDS011;6914;53.552;9.908;2022-11-15T09:26:34;29.87;;;20.40;;
13683;SDS011;6914;53.552;9.908;2022-11-15T09:29:01;31.07;;;20.83;;
13683;SDS011;6914;53.552;9.908;2022-11-15T09:31:29;30.10;;;19.63;;
13683;SDS011;6914;53.552;9.908;2022-11-15T09:33:56;30.37;;;19.93;;
13683;SDS011;6914;53.552;9.908;2022-11-15T09:36:22;31.33;;;20.93;;
13683;SDS011;6914;53.552;9.908;2022-11-15T09:38:49;35.50;;;20.33;;
13683;SDS011;6914;53.552;9.908;2022-11-15T09:41:31;27.90;;;19.77;;
13683;SDS011;6914;53.552;9.908;2022-11-15T09:44:18;38.57;;;22.60;;
13683;SDS011;6914;53.552;9.908;2022-11-15T09:47:01;30.03;;;19.67;;
13683;SDS011;6914;53.552;9.908;2022-11-15T09:49:41;28.27;;;20.23;;
13683;SDS011;6914;53.552;9.908;2022-11-15T09:52:08;21.90;;;17.73;;
13683;SDS011;6914;53.552;9.908;2022-11-15T09:54:37;30.50;;;21.30;;
13683;SDS011;6914;53.552;9.908;2022-11-15T09:57:09;36.10;;;20.90;;
13683;SDS011;6914;53.552;9.908;2022-11-15T09:59:49;32.90;;;19.77;;
13683;SDS011;6914;53.552;9.908;2022-11-15T10:02:30;32.23;;;19.63;;
13683;SDS011;6914;53.552;9.908;2022-11-15T10:05:06;38.13;;;21.07;;
13683;SDS011;6914;53.552;9.908;2022-11-15T10:07:37;32.53;;;21.17;;
13683;SDS011;6914;53.552;9.908;2022-11-15T10:10:11;28.13;;;20.70;;
13683;SDS011;6914;53.552;9.908;2022-11-15T10:12:47;26.97;;;18.17;;
13683;SDS011;6914;53.552;9.908;2022-11-15T10:15:16;29.60;;;20.37;;
13683;SDS011;6914;53.552;9.908;2022-11-15T10:17:58;29.53;;;19.47;;
13683;SDS011;6914;53.552;9.908;2022-11-15T10:20:39;29.60;;;19.93;;
13683;SDS011;6914;53.552;9.908;2022-11-15T10:23:11;25.00;;;17.67;;
13683;SDS011;6914;53.552;9.908;2022-11-15T10:25:40;27.13;;;18.53;;
13683;SDS011;6914;53.552;9.908;2022-11-15T10:28:10;27.80;;;18.90;;
13683;SDS011;6914;53.552;9.908;2022-11-15T10:30:41;25.33;;;17.50;;
13683;SDS011;6914;53.552;9.908;2022-11-15T10:33:13;27.93;;;17.93;;
13683;SDS011;6914;53.552;9.908;2022-11-15T10:35:46;36.40;;;19.77;;
13683;SDS011;6914;53.552;9.908;2022-11-15T10:38:13;31.33;;;19.23;;
13683;SDS011;6914;53.552;9.908;2022-11-15T10:40:40;27.97;;;19.03;;
13683;SDS011;6914;53.552;9.908;2022-11-15T10:43:15;26.67;;;17.90;;
13683;SDS011;6914;53.552;9.908;2022-11-15T10:45:45;29.93;;;20.67;;
13683;SDS011;6914;53.552;9.908;2022-11-15T10:48:22;29.33;;;19.27;;
13683;SDS011;6914;53.552;9.908;2022-11-15T10:50:51;30.63;;;19.10;;
13683;SDS011;6914;53.552;9.908;2022-11-15T10:53:21;30.17;;;20.40;;
13683;SDS011;6914;53.552;9.908;2022-11-15T10:55:51;33.67;;;18.27;;
13683;SDS011;6914;53.552;9.908;2022-11-15T10:58:21;27.07;;;20.83;;
13683;SDS011;6914;53.552;9.908;2022-11-15T11:00:55;27.17;;;17.87;;
13683;SDS011;6914;53.552;9.908;2022-11-15T11:03:36;28.17;;;18.27;;
13683;SDS011;6914;53.552;9.908;2022-11-15T11:06:05;22.57;;;18.13;;
13683;SDS011;6914;53.552;9.908;2022-11-15T11:08:34;33.83;;;18.80;;
13683;SDS011;6914;53.552;9.908;2022-11-15T11:11:03;29.47;;;18.37;;
13683;SDS011;6914;53.552;9.908;2022-11-15T11:13:32;22.07;;;16.40;;
13683;SDS011;6914;53.552;9.908;2022-11-15T11:16:20;25.90;;;19.53;;
13683;SDS011;6914;53.552;9.908;2022-11-15T11:19:02;27.63;;;19.30;;
13683;SDS011;6914;53.552;9.908;2022-11-15T11:21:45;27.80;;;19.27;;
13683;SDS011;6914;53.552;9.908;2022-11-15T11:24:18;25.30;;;18.30;;
13683;SDS011;6914;53.552;9.908;2022-11-15T11:26:59;27.17;;;18.50;;
13683;SDS011;6914;53.552;9.908;2022-11-15T11:29:38;25.53;;;18.57;;
13683;SDS011;6914;53.552;9.908;2022-11-15T11:32:21;26.47;;;17.13;;
13683;SDS011;6914;53.552;9.908;2022-11-15T11:35:01;21.80;;;15.90;;
13683;SDS011;6914;53.552;9.908;2022-11-15T11:37:37;24.23;;;16.60;;
13683;SDS011;6914;53.552;9.908;2022-11-15T11:40:13;27.20;;;16.30;;
13683;SDS011;6914;53.552;9.908;2022-11-15T11:42:54;24.80;;;16.80;;
13683;SDS011;6914;53.552;9.908;2022-11-15T11:45:31;22.53;;;16.80;;
13683;SDS011;6914;53.552;9.908;2022-11-15T11:48:19;18.27;;;15.50;;
13683;SDS011;6914;53.552;9.908;2022-11-15T11:50:56;23.10;;;15.67;;
13683;SDS011;6914;53.552;9.908;2022-11-15T11:53:29;32.93;;;17.10;;
13683;SDS011;6914;53.552;9.908;2022-11-15T11:56:03;30.57;;;16.27;;
13683;SDS011;6914;53.552;9.908;2022-11-15T11:58:36;27.23;;;17.17;;
13683;SDS011;6914;53.552;9.908;2022-11-15T12:01:10;27.50;;;18.53;;
13683;SDS011;6914;53.552;9.908;2022-11-15T12:03:43;29.03;;;16.20;;
13683;SDS011;6914;53.552;9.908;2022-11-15T12:06:19;22.43;;;16.30;;
13683;SDS011;6914;53.552;9.908;2022-11-15T12:08:52;25.30;;;16.47;;
13683;SDS011;6914;53.552;9.908;2022-11-15T12:11:27;20.40;;;15.93;;
13683;SDS011;6914;53.552;9.908;2022-11-15T12:14:03;28.90;;;16.87;;
13683;SDS011;6914;53.552;9.908;2022-11-15T12:16:42;17.60;;;14.90;;
13683;SDS011;6914;53.552;9.908;2022-11-15T12:19:09;25.73;;;14.07;;
13683;SDS011;6914;53.552;9.908;2022-11-15T12:21:39;19.63;;;13.90;;
13683;SDS011;6914;53.552;9.908;2022-11-15T12:24:12;20.00;;;14.03;;
13683;SDS011;6914;53.552;9.908;2022-11-15T12:26:45;15.73;;;14.10;;
13683;SDS011;6914;53.552;9.908;2022-11-15T12:29:16;18.30;;;14.00;;
13683;SDS011;6914;53.552;9.908;2022-11-15T12:31:55;25.27;;;14.37;;
13683;SDS011;6914;53.552;9.908;2022-11-15T12:34:38;19.03;;;13.33;;
13683;SDS011;6914;53.552;9.908;2022-11-15T12:40:28;27.03;;;13.90;;
13683;SDS011;6914;53.552;9.908;2022-11-15T12:42:58;18.77;;;13.67;;
13683;SDS011;6914;53.552;9.908;2022-11-15T12:45:30;22.83;;;14.27;;
13683;SDS011;6914;53.552;9.908;2022-11-15T12:51:14;22.57;;;14.03;;
13683;SDS011;6914;53.552;9.908;2022-11-15T12:53:42;19.93;;;14.53;;
13683;SDS011;6914;53.552;9.908;2022-11-15T12:56:17;18.53;;;13.73;;
13683;SDS011;6914;53.552;9.908;2022-11-15T12:58:47;21.00;;;15.13;;
13683;SDS011;6914;53.552;9.908;2022-11-15T13:04:22;18.63;;;14.23;;
13683;SDS011;6914;53.552;9.908;2022-11-15T13:06:57;15.07;;;12.67;;
13683;SDS011;6914;53.552;9.908;2022-11-15T13:15:35;16.07;;;14.43;;
13683;SDS011;6914;53.552;9.908;2022-11-15T13:21:00;18.33;;;14.03;;
13683;SDS011;6914;53.552;9.908;2022-11-15T13:23:51;16.23;;;13.70;;
13683;SDS011;6914;53.552;9.908;2022-11-15T13:26:19;24.03;;;13.47;;
13683;SDS011;6914;53.552;9.908;2022-11-15T13:28:50;13.10;;;11.70;;
13683;SDS011;6914;53.552;9.908;2022-11-15T13:31:24;21.23;;;12.60;;
13683;SDS011;6914;53.552;9.908;2022-11-15T13:33:55;17.23;;;13.53;;
13683;SDS011;6914;53.552;9.908;2022-11-15T13:36:25;19.47;;;13.83;;
13683;SDS011;6914;53.552;9.908;2022-11-15T13:38:55;20.27;;;14.07;;
13683;SDS011;6914;53.552;9.908;2022-11-15T13:41:25;21.83;;;13.03;;
13683;SDS011;6914;53.552;9.908;2022-11-15T13:43:54;21.23;;;12.60;;
13683;SDS011;6914;53.552;9.908;2022-11-15T13:46:23;20.40;;;14.30;;
13683;SDS011;6914;53.552;9.908;2022-11-15T13:48:52;17.23;;;14.17;;
13683;SDS011;6914;53.552;9.908;2022-11-15T13:51:21;21.13;;;13.40;;
13683;SDS011;6914;53.552;9.908;2022-11-15T13:54:03;19.27;;;13.90;;
13683;SDS011;6914;53.552;9.908;2022-11-15T13:56:39;25.43;;;14.27;;
13683;SDS011;6914;53.552;9.908;2022-11-15T13:59:10;15.47;;;12.57;;
13683;SDS011;6914;53.552;9.908;2022-11-15T14:01:43;23.43;;;12.07;;
13683;SDS011;6914;53.552;9.908;2022-11-15T14:04:11;19.70;;;11.83;;
13683;SDS011;6914;53.552;9.908;2022-11-15T14:06:44;12.60;;;11.30;;
13683;SDS011;6914;53.552;9.908;2022-11-15T14:09:22;22.87;;;13.90;;
13683;SDS011;6914;53.552;9.908;2022-11-15T14:11:59;22.37;;;12.37;;
13683;SDS011;6914;53.552;9.908;2022-11-15T14:14:28;22.10;;;12.17;;
13683;SDS011;6914;53.552;9.908;2022-11-15T14:16:56;18.40;;;11.67;;
13683;SDS011;6914;53.552;9.908;2022-11-15T14:19:38;19.93;;;12.33;;
13683;SDS011;6914;53.552;9.908;2022-11-15T14:22:17;16.80;;;12.80;;
13683;SDS011;6914;53.552;9.908;2022-11-15T14:24:47;21.40;;;12.90;;
13683;SDS011;6914;53.552;9.908;2022-11-15T14:27:29;18.57;;;11.87;;
13683;SDS011;6914;53.552;9.908;2022-11-15T14:29:57;15.60;;;13.10;;
13683;SDS011;6914;53.552;9.908;2022-11-15T14:32:25;18.00;;;11.63;;
13683;SDS011;6914;53.552;9.908;2022-11-15T14:34:54;19.87;;;11.30;;
13683;SDS011;6914;53.552;9.908;2022-11-15T14:37:22;12.00;;;10.73;;
13683;SDS011;6914;53.552;9.908;2022-11-15T14:39:50;19.40;;;11.83;;
13683;SDS011;6914;53.552;9.908;2022-11-15T14:42:18;15.23;;;12.30;;
13683;SDS011;6914;53.552;9.908;2022-11-15T14:44:46;16.40;;;13.90;;
13683;SDS011;6914;53.552;9.908;2022-11-15T14:47:14;14.80;;;12.30;;
13683;SDS011;6914;53.552;9.908;2022-11-15T14:49:41;17.60;;;12.27;;
13683;SDS011;6914;53.552;9.908;2022-11-15T14:54:54;16.60;;;12.30;;
13683;SDS011;6914;53.552;9.908;2022-11-15T14:57:21;18.37;;;12.80;;
13683;SDS011;6914;53.552;9.908;2022-11-15T14:59:47;16.20;;;12.87;;
13683;SDS011;6914;53.552;9.908;2022-11-15T15:02:16;14.87;;;12.00;;
13683;SDS011;6914;53.552;9.908;2022-11-15T15:04:45;13.97;;;11.00;;
13683;SDS011;6914;53.552;9.908;2022-11-15T15:07:12;15.70;;;12.37;;
13683;SDS011;6914;53.552;9.908;2022-11-15T15:09:39;17.03;;;12.50;;
13683;SDS011;6914;53.552;9.908;2022-11-15T15:12:10;17.70;;;11.87;;
13683;SDS011;6914;53.552;9.908;2022-11-15T15:14:41;13.63;;;11.87;;
13683;SDS011;6914;53.552;9.908;2022-11-15T15:17:08;15.07;;;12.83;;
13683;SDS011;6914;53.552;9.908;2022-11-15T15:19:36;15.73;;;13.57;;